sensor_id;sensor_type;location;lat;lon;timestamp;temperature;humidity
12819;DHT22;6474;53.474;9.894;2023-07-31T00:02:17;15.90;82.50
12819;DHT22;6474;53.474;9.894;2023-07-31T00:04:45;15.90;82.50
12819;DHT22;6474;53.474;9.894;2023-07-31T00:07:13;15.90;82.40
12819;DHT22;6474;53.474;9.894;2023-07-31T00:09:43;15.90;82.40
12819;DHT22;6474;53.474;9.894;2023-07-31T00:12:11;15.90;82.40
12819;DHT22;6474;53.474;9.894;2023-07-31T00:14:42;15.90;82.50
12819;DHT22;6474;53.474;9.894;2023-07-31T00:17:10;15.80;82.40
12819;DHT22;6474;53.474;9.894;2023-07-31T00:19:38;15.80;82.40
12819;DHT22;6474;53.474;9.894;2023-07-31T00:22:06;15.80;82.40
12819;DHT22;6474;53.474;9.894;2023-07-31T00:24:34;15.80;82.50
12819;DHT22;6474;53.474;9.894;2023-07-31T00:27:03;15.70;82.40
12819;DHT22;6474;53.474;9.894;2023-07-31T00:29:31;15.70;82.60
12819;DHT22;6474;53.474;9.894;2023-07-31T00:32:00;15.80;82.80
12819;DHT22;6474;53.474;9.894;2023-07-31T00:34:28;15.80;82.70
12819;DHT22;6474;53.474;9.894;2023-07-31T00:36:56;15.80;82.60
12819;DHT22;6474;53.474;9.894;2023-07-31T00:39:25;15.80;82.50
12819;DHT22;6474;53.474;9.894;2023-07-31T00:41:53;15.80;82.50
12819;DHT22;6474;53.474;9.894;2023-07-31T00:44:21;15.80;82.50
12819;DHT22;6474;53.474;9.894;2023-07-31T00:46:49;15.80;82.50
12819;DHT22;6474;53.474;9.894;2023-07-31T00:49:20;15.80;82.50
12819;DHT22;6474;53.474;9.894;2023-07-31T00:51:49;15.80;82.50
12819;DHT22;6474;53.474;9.894;2023-07-31T00:54:17;15.80;82.50
12819;DHT22;6474;53.474;9.894;2023-07-31T00:56:45;15.80;82.50
12819;DHT22;6474;53.474;9.894;2023-07-31T00:59:15;15.80;82.50
12819;DHT22;6474;53.474;9.894;2023-07-31T01:01:45;15.80;82.40
12819;DHT22;6474;53.474;9.894;2023-07-31T01:04:13;15.80;82.50
12819;DHT22;6474;53.474;9.894;2023-07-31T01:06:51;15.70;82.30
12819;DHT22;6474;53.474;9.894;2023-07-31T01:09:25;15.70;82.30
12819;DHT22;6474;53.474;9.894;2023-07-31T01:11:57;15.70;82.40
12819;DHT22;6474;53.474;9.894;2023-07-31T01:14:28;15.70;82.40
12819;DHT22;6474;53.474;9.894;2023-07-31T01:16:56;15.60;82.40
12819;DHT22;6474;53.474;9.894;2023-07-31T01:19:28;15.60;82.50
12819;DHT22;6474;53.474;9.894;2023-07-31T01:22:16;15.60;82.50
12819;DHT22;6474;53.474;9.894;2023-07-31T01:24:58;15.60;82.80
12819;DHT22;6474;53.474;9.894;2023-07-31T01:27:30;15.60;82.60
12819;DHT22;6474;53.474;9.894;2023-07-31T01:30:08;15.60;82.60
12819;DHT22;6474;53.474;9.894;2023-07-31T01:32:42;15.60;82.60
12819;DHT22;6474;53.474;9.894;2023-07-31T01:35:10;15.60;82.60
12819;DHT22;6474;53.474;9.894;2023-07-31T01:37:38;15.60;82.60
12819;DHT22;6474;53.474;9.894;2023-07-31T01:40:07;15.60;82.60
12819;DHT22;6474;53.474;9.894;2023-07-31T01:42:39;15.70;82.70
12819;DHT22;6474;53.474;9.894;2023-07-31T01:45:08;15.70;82.60
12819;DHT22;6474;53.474;9.894;2023-07-31T01:47:36;15.70;82.60
12819;DHT22;6474;53.474;9.894;2023-07-31T01:50:05;15.70;82.60
12819;DHT22;6474;53.474;9.894;2023-07-31T01:52:33;15.70;82.60
12819;DHT22;6474;53.474;9.894;2023-07-31T01:55:01;15.80;82.70
12819;DHT22;6474;53.474;9.894;2023-07-31T01:57:29;15.80;82.70
12819;DHT22;6474;53.474;9.894;2023-07-31T01:59:59;15.80;82.60
12819;DHT22;6474;53.474;9.894;2023-07-31T02:02:27;15.80;82.60
12819;DHT22;6474;53.474;9.894;2023-07-31T02:04:55;15.90;82.70
12819;DHT22;6474;53.474;9.894;2023-07-31T02:07:23;15.90;82.70
12819;DHT22;6474;53.474;9.894;2023-07-31T02:09:51;15.90;82.70
12819;DHT22;6474;53.474;9.894;2023-07-31T02:12:19;15.90;82.70
12819;DHT22;6474;53.474;9.894;2023-07-31T02:14:47;15.90;82.80
12819;DHT22;6474;53.474;9.894;2023-07-31T02:17:16;15.90;82.80
12819;DHT22;6474;53.474;9.894;2023-07-31T02:19:44;16.00;82.90
12819;DHT22;6474;53.474;9.894;2023-07-31T02:22:12;16.00;83.00
12819;DHT22;6474;53.474;9.894;2023-07-31T02:24:40;16.00;82.90
12819;DHT22;6474;53.474;9.894;2023-07-31T02:27:11;16.00;83.00
12819;DHT22;6474;53.474;9.894;2023-07-31T02:29:39;16.10;83.80
12819;DHT22;6474;53.474;9.894;2023-07-31T02:32:07;16.10;83.10
12819;DHT22;6474;53.474;9.894;2023-07-31T02:34:37;16.10;83.20
12819;DHT22;6474;53.474;9.894;2023-07-31T02:37:05;16.10;83.30
12819;DHT22;6474;53.474;9.894;2023-07-31T02:39:33;16.10;83.30
12819;DHT22;6474;53.474;9.894;2023-07-31T02:42:02;16.10;83.30
12819;DHT22;6474;53.474;9.894;2023-07-31T02:44:30;16.10;83.30
12819;DHT22;6474;53.474;9.894;2023-07-31T02:46:58;16.10;83.20
12819;DHT22;6474;53.474;9.894;2023-07-31T02:49:26;16.10;83.20
12819;DHT22;6474;53.474;9.894;2023-07-31T02:51:55;16.10;83.20
12819;DHT22;6474;53.474;9.894;2023-07-31T02:54:23;16.10;83.10
12819;DHT22;6474;53.474;9.894;2023-07-31T02:56:51;16.10;83.10
12819;DHT22;6474;53.474;9.894;2023-07-31T02:59:20;16.10;83.10
12819;DHT22;6474;53.474;9.894;2023-07-31T03:01:48;16.00;83.10
12819;DHT22;6474;53.474;9.894;2023-07-31T03:04:16;16.00;83.10
12819;DHT22;6474;53.474;9.894;2023-07-31T03:06:44;16.00;83.10
12819;DHT22;6474;53.474;9.894;2023-07-31T03:09:14;16.00;83.00
12819;DHT22;6474;53.474;9.894;2023-07-31T03:11:41;16.00;83.10
12819;DHT22;6474;53.474;9.894;2023-07-31T03:14:09;16.00;83.10
12819;DHT22;6474;53.474;9.894;2023-07-31T03:16:37;16.00;83.10
12819;DHT22;6474;53.474;9.894;2023-07-31T03:19:06;16.00;83.10
12819;DHT22;6474;53.474;9.894;2023-07-31T03:21:34;16.00;83.10
12819;DHT22;6474;53.474;9.894;2023-07-31T03:24:02;16.00;83.10
12819;DHT22;6474;53.474;9.894;2023-07-31T03:26:32;16.00;83.10
12819;DHT22;6474;53.474;9.894;2023-07-31T03:29:02;16.00;83.20
12819;DHT22;6474;53.474;9.894;2023-07-31T03:31:30;16.00;83.20
12819;DHT22;6474;53.474;9.894;2023-07-31T03:33:58;16.00;83.20
12819;DHT22;6474;53.474;9.894;2023-07-31T03:36:26;16.00;83.30
12819;DHT22;6474;53.474;9.894;2023-07-31T03:38:54;16.10;83.40
12819;DHT22;6474;53.474;9.894;2023-07-31T03:41:25;16.10;83.30
12819;DHT22;6474;53.474;9.894;2023-07-31T03:43:55;16.10;83.30
12819;DHT22;6474;53.474;9.894;2023-07-31T03:46:24;16.10;83.30
12819;DHT22;6474;53.474;9.894;2023-07-31T03:48:52;16.10;83.30
12819;DHT22;6474;53.474;9.894;2023-07-31T03:51:20;16.10;83.30
12819;DHT22;6474;53.474;9.894;2023-07-31T03:53:51;16.10;83.20
12819;DHT22;6474;53.474;9.894;2023-07-31T03:56:19;16.10;83.30
12819;DHT22;6474;53.474;9.894;2023-07-31T03:58:47;16.10;83.20
12819;DHT22;6474;53.474;9.894;2023-07-31T04:01:19;16.10;83.20
12819;DHT22;6474;53.474;9.894;2023-07-31T04:09:56;16.20;83.20
12819;DHT22;6474;53.474;9.894;2023-07-31T04:12:24;16.20;83.20
12819;DHT22;6474;53.474;9.894;2023-07-31T04:14:52;16.20;83.20
12819;DHT22;6474;53.474;9.894;2023-07-31T04:17:21;16.20;83.20
12819;DHT22;6474;53.474;9.894;2023-07-31T04:19:49;16.20;83.20
12819;DHT22;6474;53.474;9.894;2023-07-31T04:22:17;16.20;83.20
12819;DHT22;6474;53.474;9.894;2023-07-31T04:24:45;16.20;83.20
12819;DHT22;6474;53.474;9.894;2023-07-31T04:27:13;16.20;83.20
12819;DHT22;6474;53.474;9.894;2023-07-31T04:29:41;16.20;83.20
12819;DHT22;6474;53.474;9.894;2023-07-31T04:32:11;16.20;83.10
12819;DHT22;6474;53.474;9.894;2023-07-31T04:34:40;16.20;83.10
12819;DHT22;6474;53.474;9.894;2023-07-31T04:37:08;16.20;83.20
12819;DHT22;6474;53.474;9.894;2023-07-31T04:39:35;16.20;83.20
12819;DHT22;6474;53.474;9.894;2023-07-31T04:42:04;16.20;83.20
12819;DHT22;6474;53.474;9.894;2023-07-31T04:44:31;16.20;83.30
12819;DHT22;6474;53.474;9.894;2023-07-31T04:46:59;16.20;83.30
12819;DHT22;6474;53.474;9.894;2023-07-31T04:49:28;16.10;83.30
12819;DHT22;6474;53.474;9.894;2023-07-31T04:51:57;16.10;83.40
12819;DHT22;6474;53.474;9.894;2023-07-31T04:54:25;16.10;83.30
12819;DHT22;6474;53.474;9.894;2023-07-31T04:56:53;16.10;83.40
12819;DHT22;6474;53.474;9.894;2023-07-31T04:59:21;16.10;83.40
12819;DHT22;6474;53.474;9.894;2023-07-31T05:01:49;16.10;83.40
12819;DHT22;6474;53.474;9.894;2023-07-31T05:04:17;16.10;83.50
12819;DHT22;6474;53.474;9.894;2023-07-31T05:06:44;16.10;83.50
12819;DHT22;6474;53.474;9.894;2023-07-31T05:09:29;16.10;83.50
12819;DHT22;6474;53.474;9.894;2023-07-31T05:11:57;16.10;83.70
12819;DHT22;6474;53.474;9.894;2023-07-31T05:14:25;16.10;83.80
12819;DHT22;6474;53.474;9.894;2023-07-31T05:16:54;16.00;83.70
12819;DHT22;6474;53.474;9.894;2023-07-31T05:19:21;16.10;83.80
12819;DHT22;6474;53.474;9.894;2023-07-31T05:21:49;16.00;83.70
12819;DHT22;6474;53.474;9.894;2023-07-31T05:24:17;16.10;83.80
12819;DHT22;6474;53.474;9.894;2023-07-31T05:26:46;16.10;83.80
12819;DHT22;6474;53.474;9.894;2023-07-31T05:29:14;16.10;83.80
12819;DHT22;6474;53.474;9.894;2023-07-31T05:31:43;16.10;83.80
12819;DHT22;6474;53.474;9.894;2023-07-31T05:34:11;16.10;83.80
12819;DHT22;6474;53.474;9.894;2023-07-31T05:36:38;16.10;83.70
12819;DHT22;6474;53.474;9.894;2023-07-31T05:39:07;16.10;83.70
12819;DHT22;6474;53.474;9.894;2023-07-31T05:41:35;16.10;83.60
12819;DHT22;6474;53.474;9.894;2023-07-31T05:44:05;16.10;83.60
12819;DHT22;6474;53.474;9.894;2023-07-31T05:46:33;16.20;83.60
12819;DHT22;6474;53.474;9.894;2023-07-31T05:49:01;16.20;83.50
12819;DHT22;6474;53.474;9.894;2023-07-31T05:51:29;16.20;83.50
12819;DHT22;6474;53.474;9.894;2023-07-31T05:53:57;16.20;83.40
12819;DHT22;6474;53.474;9.894;2023-07-31T05:56:25;16.20;83.40
12819;DHT22;6474;53.474;9.894;2023-07-31T05:58:53;16.20;83.40
12819;DHT22;6474;53.474;9.894;2023-07-31T06:01:23;16.30;83.60
12819;DHT22;6474;53.474;9.894;2023-07-31T06:03:50;16.30;83.60
12819;DHT22;6474;53.474;9.894;2023-07-31T06:06:18;16.30;83.50
12819;DHT22;6474;53.474;9.894;2023-07-31T06:08:46;16.40;83.60
12819;DHT22;6474;53.474;9.894;2023-07-31T06:11:14;16.40;83.60
12819;DHT22;6474;53.474;9.894;2023-07-31T06:13:42;16.50;83.60
12819;DHT22;6474;53.474;9.894;2023-07-31T06:16:11;16.50;83.50
12819;DHT22;6474;53.474;9.894;2023-07-31T06:18:40;16.60;83.60
12819;DHT22;6474;53.474;9.894;2023-07-31T06:21:08;16.60;83.70
12819;DHT22;6474;53.474;9.894;2023-07-31T06:23:36;16.60;83.60
12819;DHT22;6474;53.474;9.894;2023-07-31T06:26:04;16.60;83.60
12819;DHT22;6474;53.474;9.894;2023-07-31T06:28:32;16.70;83.70
12819;DHT22;6474;53.474;9.894;2023-07-31T06:31:00;16.70;83.70
12819;DHT22;6474;53.474;9.894;2023-07-31T06:33:28;16.80;83.80
12819;DHT22;6474;53.474;9.894;2023-07-31T06:35:58;16.80;83.80
12819;DHT22;6474;53.474;9.894;2023-07-31T06:38:26;16.80;83.80
12819;DHT22;6474;53.474;9.894;2023-07-31T06:40:54;16.80;83.80
12819;DHT22;6474;53.474;9.894;2023-07-31T06:43:22;16.80;83.80
12819;DHT22;6474;53.474;9.894;2023-07-31T06:45:54;16.90;83.90
12819;DHT22;6474;53.474;9.894;2023-07-31T06:48:21;16.90;83.90
12819;DHT22;6474;53.474;9.894;2023-07-31T06:50:50;16.90;83.80
12819;DHT22;6474;53.474;9.894;2023-07-31T06:53:19;17.00;83.90
12819;DHT22;6474;53.474;9.894;2023-07-31T06:55:47;17.00;83.90
12819;DHT22;6474;53.474;9.894;2023-07-31T06:58:15;16.90;83.80
12819;DHT22;6474;53.474;9.894;2023-07-31T07:00:43;16.90;83.90
12819;DHT22;6474;53.474;9.894;2023-07-31T07:03:11;17.00;84.00
12819;DHT22;6474;53.474;9.894;2023-07-31T07:05:41;17.00;83.90
12819;DHT22;6474;53.474;9.894;2023-07-31T07:08:09;17.00;83.80
12819;DHT22;6474;53.474;9.894;2023-07-31T07:10:38;17.00;83.90
12819;DHT22;6474;53.474;9.894;2023-07-31T07:13:06;16.90;83.90
12819;DHT22;6474;53.474;9.894;2023-07-31T07:15:34;16.90;83.90
12819;DHT22;6474;53.474;9.894;2023-07-31T07:18:02;16.90;84.00
12819;DHT22;6474;53.474;9.894;2023-07-31T07:20:30;16.90;84.00
12819;DHT22;6474;53.474;9.894;2023-07-31T07:22:59;16.90;84.10
12819;DHT22;6474;53.474;9.894;2023-07-31T07:25:27;16.90;84.00
12819;DHT22;6474;53.474;9.894;2023-07-31T07:27:57;16.90;84.10
12819;DHT22;6474;53.474;9.894;2023-07-31T07:30:25;17.00;84.30
12819;DHT22;6474;53.474;9.894;2023-07-31T07:32:53;17.00;84.20
12819;DHT22;6474;53.474;9.894;2023-07-31T07:35:21;17.10;84.30
12819;DHT22;6474;53.474;9.894;2023-07-31T07:37:49;17.20;84.40
12819;DHT22;6474;53.474;9.894;2023-07-31T07:40:19;17.20;84.50
12819;DHT22;6474;53.474;9.894;2023-07-31T07:42:46;17.30;84.40
12819;DHT22;6474;53.474;9.894;2023-07-31T07:45:16;17.40;84.50
12819;DHT22;6474;53.474;9.894;2023-07-31T07:47:44;17.40;84.50
12819;DHT22;6474;53.474;9.894;2023-07-31T07:50:13;17.50;84.60
12819;DHT22;6474;53.474;9.894;2023-07-31T07:52:41;17.60;85.20
12819;DHT22;6474;53.474;9.894;2023-07-31T07:55:09;17.60;85.30
12819;DHT22;6474;53.474;9.894;2023-07-31T07:57:37;17.70;85.20
12819;DHT22;6474;53.474;9.894;2023-07-31T08:00:06;17.80;85.20
12819;DHT22;6474;53.474;9.894;2023-07-31T08:02:38;17.90;85.10
12819;DHT22;6474;53.474;9.894;2023-07-31T08:07:44;18.00;85.00
12819;DHT22;6474;53.474;9.894;2023-07-31T08:10:12;18.10;85.00
12819;DHT22;6474;53.474;9.894;2023-07-31T08:12:40;18.10;85.70
12819;DHT22;6474;53.474;9.894;2023-07-31T08:15:08;18.20;85.00
12819;DHT22;6474;53.474;9.894;2023-07-31T08:17:39;18.20;85.10
12819;DHT22;6474;53.474;9.894;2023-07-31T08:20:08;18.30;85.10
12819;DHT22;6474;53.474;9.894;2023-07-31T08:22:36;18.30;85.10
12819;DHT22;6474;53.474;9.894;2023-07-31T08:25:05;18.30;85.10
12819;DHT22;6474;53.474;9.894;2023-07-31T08:27:33;18.30;85.10
12819;DHT22;6474;53.474;9.894;2023-07-31T08:30:01;18.30;85.10
12819;DHT22;6474;53.474;9.894;2023-07-31T08:32:29;18.40;85.10
12819;DHT22;6474;53.474;9.894;2023-07-31T08:34:58;18.30;84.90
12819;DHT22;6474;53.474;9.894;2023-07-31T08:37:26;18.30;85.00
12819;DHT22;6474;53.474;9.894;2023-07-31T08:39:53;18.40;85.10
12819;DHT22;6474;53.474;9.894;2023-07-31T08:42:22;18.40;85.10
12819;DHT22;6474;53.474;9.894;2023-07-31T08:44:52;18.40;85.10
12819;DHT22;6474;53.474;9.894;2023-07-31T08:47:22;18.40;85.10
12819;DHT22;6474;53.474;9.894;2023-07-31T08:49:51;18.40;85.20
12819;DHT22;6474;53.474;9.894;2023-07-31T08:52:20;18.50;85.30
12819;DHT22;6474;53.474;9.894;2023-07-31T08:54:48;18.50;85.20
12819;DHT22;6474;53.474;9.894;2023-07-31T08:57:18;18.50;85.10
12819;DHT22;6474;53.474;9.894;2023-07-31T08:59:46;18.50;85.00
12819;DHT22;6474;53.474;9.894;2023-07-31T09:02:15;18.60;85.10
12819;DHT22;6474;53.474;9.894;2023-07-31T09:04:44;18.50;85.00
12819;DHT22;6474;53.474;9.894;2023-07-31T09:07:12;18.60;85.20
12819;DHT22;6474;53.474;9.894;2023-07-31T09:09:43;18.60;85.20
12819;DHT22;6474;53.474;9.894;2023-07-31T09:12:10;18.50;85.10
12819;DHT22;6474;53.474;9.894;2023-07-31T09:14:39;18.50;85.10
12819;DHT22;6474;53.474;9.894;2023-07-31T09:17:07;18.50;85.10
12819;DHT22;6474;53.474;9.894;2023-07-31T09:19:36;18.50;85.10
12819;DHT22;6474;53.474;9.894;2023-07-31T09:22:05;18.50;85.10
12819;DHT22;6474;53.474;9.894;2023-07-31T09:24:34;18.50;85.20
12819;DHT22;6474;53.474;9.894;2023-07-31T09:27:05;18.50;85.20
12819;DHT22;6474;53.474;9.894;2023-07-31T09:29:33;18.50;85.20
12819;DHT22;6474;53.474;9.894;2023-07-31T09:32:01;18.50;85.10
12819;DHT22;6474;53.474;9.894;2023-07-31T09:34:30;18.50;85.60
12819;DHT22;6474;53.474;9.894;2023-07-31T09:37:05;18.40;84.70
12819;DHT22;6474;53.474;9.894;2023-07-31T09:39:45;18.40;84.70
12819;DHT22;6474;53.474;9.894;2023-07-31T09:42:24;18.40;84.70
12819;DHT22;6474;53.474;9.894;2023-07-31T09:44:52;18.40;84.60
12819;DHT22;6474;53.474;9.894;2023-07-31T09:47:24;18.40;85.30
12819;DHT22;6474;53.474;9.894;2023-07-31T09:49:53;18.40;84.60
12819;DHT22;6474;53.474;9.894;2023-07-31T09:52:21;18.40;84.60
12819;DHT22;6474;53.474;9.894;2023-07-31T09:54:50;18.40;84.60
12819;DHT22;6474;53.474;9.894;2023-07-31T09:57:21;18.40;84.70
12819;DHT22;6474;53.474;9.894;2023-07-31T09:59:52;18.40;84.80
12819;DHT22;6474;53.474;9.894;2023-07-31T10:02:21;18.40;84.70
12819;DHT22;6474;53.474;9.894;2023-07-31T10:04:50;18.40;84.80
12819;DHT22;6474;53.474;9.894;2023-07-31T10:07:20;18.30;84.70
12819;DHT22;6474;53.474;9.894;2023-07-31T10:09:49;18.30;84.80
12819;DHT22;6474;53.474;9.894;2023-07-31T10:12:20;18.30;84.80
12819;DHT22;6474;53.474;9.894;2023-07-31T10:14:52;18.20;84.70
12819;DHT22;6474;53.474;9.894;2023-07-31T10:17:22;18.20;84.60
12819;DHT22;6474;53.474;9.894;2023-07-31T10:19:51;18.10;84.50
12819;DHT22;6474;53.474;9.894;2023-07-31T10:22:20;18.00;84.60
12819;DHT22;6474;53.474;9.894;2023-07-31T10:24:49;18.00;84.60
12819;DHT22;6474;53.474;9.894;2023-07-31T10:27:17;17.90;84.50
12819;DHT22;6474;53.474;9.894;2023-07-31T10:29:47;17.80;84.50
12819;DHT22;6474;53.474;9.894;2023-07-31T10:32:17;17.80;84.60
12819;DHT22;6474;53.474;9.894;2023-07-31T10:34:46;17.70;84.60
12819;DHT22;6474;53.474;9.894;2023-07-31T10:37:22;17.70;84.70
12819;DHT22;6474;53.474;9.894;2023-07-31T10:39:59;17.70;84.70
12819;DHT22;6474;53.474;9.894;2023-07-31T10:42:28;17.70;84.70
12819;DHT22;6474;53.474;9.894;2023-07-31T10:45:00;17.80;84.90
12819;DHT22;6474;53.474;9.894;2023-07-31T10:47:28;17.80;84.90
12819;DHT22;6474;53.474;9.894;2023-07-31T10:50:18;18.00;85.10
12819;DHT22;6474;53.474;9.894;2023-07-31T10:52:47;18.10;85.00
12819;DHT22;6474;53.474;9.894;2023-07-31T10:55:26;18.20;85.00
12819;DHT22;6474;53.474;9.894;2023-07-31T10:57:56;18.20;85.00
12819;DHT22;6474;53.474;9.894;2023-07-31T11:00:27;18.30;85.00
12819;DHT22;6474;53.474;9.894;2023-07-31T11:03:03;18.40;85.20
12819;DHT22;6474;53.474;9.894;2023-07-31T11:05:48;18.60;85.40
12819;DHT22;6474;53.474;9.894;2023-07-31T11:08:21;18.60;85.30
12819;DHT22;6474;53.474;9.894;2023-07-31T11:11:05;18.70;85.30
12819;DHT22;6474;53.474;9.894;2023-07-31T11:13:34;18.80;85.40
12819;DHT22;6474;53.474;9.894;2023-07-31T11:16:08;18.80;85.20
12819;DHT22;6474;53.474;9.894;2023-07-31T11:18:42;18.80;85.00
12819;DHT22;6474;53.474;9.894;2023-07-31T11:21:12;18.80;85.00
12819;DHT22;6474;53.474;9.894;2023-07-31T11:23:41;18.80;85.10
12819;DHT22;6474;53.474;9.894;2023-07-31T11:26:11;18.90;86.00
12819;DHT22;6474;53.474;9.894;2023-07-31T11:28:42;18.90;85.40
12819;DHT22;6474;53.474;9.894;2023-07-31T11:31:11;18.80;85.30
12819;DHT22;6474;53.474;9.894;2023-07-31T11:33:39;18.80;85.30
12819;DHT22;6474;53.474;9.894;2023-07-31T11:36:14;18.80;85.10
12819;DHT22;6474;53.474;9.894;2023-07-31T11:38:42;18.70;85.00
12819;DHT22;6474;53.474;9.894;2023-07-31T11:41:10;18.70;85.00
12819;DHT22;6474;53.474;9.894;2023-07-31T11:43:38;18.70;85.20
12819;DHT22;6474;53.474;9.894;2023-07-31T11:46:06;18.60;85.20
12819;DHT22;6474;53.474;9.894;2023-07-31T11:48:38;18.70;85.40
12819;DHT22;6474;53.474;9.894;2023-07-31T11:51:10;18.70;85.50
12819;DHT22;6474;53.474;9.894;2023-07-31T11:53:43;18.70;85.60
12819;DHT22;6474;53.474;9.894;2023-07-31T11:56:14;18.70;85.60
12819;DHT22;6474;53.474;9.894;2023-07-31T11:58:46;18.70;85.60
12819;DHT22;6474;53.474;9.894;2023-07-31T12:01:15;18.70;85.60
12819;DHT22;6474;53.474;9.894;2023-07-31T12:03:48;18.80;85.70
12819;DHT22;6474;53.474;9.894;2023-07-31T12:06:20;18.80;85.50
12819;DHT22;6474;53.474;9.894;2023-07-31T12:08:48;18.70;85.40
12819;DHT22;6474;53.474;9.894;2023-07-31T12:11:16;18.70;85.50
12819;DHT22;6474;53.474;9.894;2023-07-31T12:13:47;18.60;85.40
12819;DHT22;6474;53.474;9.894;2023-07-31T12:16:15;18.60;85.40
12819;DHT22;6474;53.474;9.894;2023-07-31T12:18:44;18.60;85.50
12819;DHT22;6474;53.474;9.894;2023-07-31T12:21:13;18.60;85.60
12819;DHT22;6474;53.474;9.894;2023-07-31T12:23:44;18.60;85.70
12819;DHT22;6474;53.474;9.894;2023-07-31T12:26:13;18.60;85.70
12819;DHT22;6474;53.474;9.894;2023-07-31T12:28:44;18.60;85.70
12819;DHT22;6474;53.474;9.894;2023-07-31T12:31:16;18.70;85.80
12819;DHT22;6474;53.474;9.894;2023-07-31T12:33:45;18.70;85.60
12819;DHT22;6474;53.474;9.894;2023-07-31T12:36:16;18.70;85.60
12819;DHT22;6474;53.474;9.894;2023-07-31T12:38:46;18.80;85.70
12819;DHT22;6474;53.474;9.894;2023-07-31T12:41:17;18.80;85.70
12819;DHT22;6474;53.474;9.894;2023-07-31T12:43:45;18.80;85.70
12819;DHT22;6474;53.474;9.894;2023-07-31T12:46:13;18.90;85.80
12819;DHT22;6474;53.474;9.894;2023-07-31T12:48:43;19.00;86.60
12819;DHT22;6474;53.474;9.894;2023-07-31T12:51:11;19.00;85.80
12819;DHT22;6474;53.474;9.894;2023-07-31T12:53:40;19.00;85.60
12819;DHT22;6474;53.474;9.894;2023-07-31T12:56:08;19.10;85.80
12819;DHT22;6474;53.474;9.894;2023-07-31T12:58:36;19.10;85.80
12819;DHT22;6474;53.474;9.894;2023-07-31T13:01:03;19.20;85.90
12819;DHT22;6474;53.474;9.894;2023-07-31T13:03:32;19.20;85.80
12819;DHT22;6474;53.474;9.894;2023-07-31T13:06:00;19.20;85.80
12819;DHT22;6474;53.474;9.894;2023-07-31T13:08:28;19.20;85.90
12819;DHT22;6474;53.474;9.894;2023-07-31T13:10:58;19.20;85.90
12819;DHT22;6474;53.474;9.894;2023-07-31T13:13:25;19.20;85.90
12819;DHT22;6474;53.474;9.894;2023-07-31T13:15:54;19.20;85.90
12819;DHT22;6474;53.474;9.894;2023-07-31T13:18:23;19.20;85.90
12819;DHT22;6474;53.474;9.894;2023-07-31T13:20:52;19.20;85.90
12819;DHT22;6474;53.474;9.894;2023-07-31T13:23:20;19.20;86.00
12819;DHT22;6474;53.474;9.894;2023-07-31T13:25:48;19.10;85.80
12819;DHT22;6474;53.474;9.894;2023-07-31T13:28:17;19.10;85.80
12819;DHT22;6474;53.474;9.894;2023-07-31T13:30:45;19.10;85.70
12819;DHT22;6474;53.474;9.894;2023-07-31T13:33:13;19.10;85.70
12819;DHT22;6474;53.474;9.894;2023-07-31T13:36:00;19.20;85.80
12819;DHT22;6474;53.474;9.894;2023-07-31T13:38:29;19.20;85.90
12819;DHT22;6474;53.474;9.894;2023-07-31T13:40:57;19.20;86.00
12819;DHT22;6474;53.474;9.894;2023-07-31T13:43:26;19.30;86.10
12819;DHT22;6474;53.474;9.894;2023-07-31T13:45:54;19.30;86.00
12819;DHT22;6474;53.474;9.894;2023-07-31T13:48:22;19.40;86.10
12819;DHT22;6474;53.474;9.894;2023-07-31T13:50:50;19.40;86.10
12819;DHT22;6474;53.474;9.894;2023-07-31T13:53:22;19.50;86.20
12819;DHT22;6474;53.474;9.894;2023-07-31T13:55:50;19.50;86.30
12819;DHT22;6474;53.474;9.894;2023-07-31T13:58:20;19.60;86.40
12819;DHT22;6474;53.474;9.894;2023-07-31T14:00:50;19.70;86.50
12819;DHT22;6474;53.474;9.894;2023-07-31T14:03:22;19.70;86.40
12819;DHT22;6474;53.474;9.894;2023-07-31T14:05:51;19.70;86.20
12819;DHT22;6474;53.474;9.894;2023-07-31T14:08:25;19.80;86.30
12819;DHT22;6474;53.474;9.894;2023-07-31T14:10:54;19.70;86.10
12819;DHT22;6474;53.474;9.894;2023-07-31T14:13:23;19.60;85.90
12819;DHT22;6474;53.474;9.894;2023-07-31T14:15:53;19.50;85.70
12819;DHT22;6474;53.474;9.894;2023-07-31T14:18:21;19.40;85.60
12819;DHT22;6474;53.474;9.894;2023-07-31T14:20:49;19.30;85.60
12819;DHT22;6474;53.474;9.894;2023-07-31T14:23:17;19.20;85.70
12819;DHT22;6474;53.474;9.894;2023-07-31T14:25:46;19.10;85.70
12819;DHT22;6474;53.474;9.894;2023-07-31T14:28:16;19.00;85.70
12819;DHT22;6474;53.474;9.894;2023-07-31T14:30:44;19.00;85.80
12819;DHT22;6474;53.474;9.894;2023-07-31T14:33:14;18.90;85.80
12819;DHT22;6474;53.474;9.894;2023-07-31T14:35:41;18.90;85.80
12819;DHT22;6474;53.474;9.894;2023-07-31T14:38:09;18.90;85.90
12819;DHT22;6474;53.474;9.894;2023-07-31T14:40:37;19.00;86.00
12819;DHT22;6474;53.474;9.894;2023-07-31T14:43:05;19.00;86.00
12819;DHT22;6474;53.474;9.894;2023-07-31T14:45:33;19.00;85.90
12819;DHT22;6474;53.474;9.894;2023-07-31T14:48:01;19.10;86.00
12819;DHT22;6474;53.474;9.894;2023-07-31T14:50:30;19.00;85.80
12819;DHT22;6474;53.474;9.894;2023-07-31T14:53:01;19.00;85.90
12819;DHT22;6474;53.474;9.894;2023-07-31T14:55:29;19.10;86.10
12819;DHT22;6474;53.474;9.894;2023-07-31T14:57:57;19.20;86.20
12819;DHT22;6474;53.474;9.894;2023-07-31T15:00:25;19.20;86.10
12819;DHT22;6474;53.474;9.894;2023-07-31T15:02:53;19.20;86.10
12819;DHT22;6474;53.474;9.894;2023-07-31T15:05:21;19.30;86.10
12819;DHT22;6474;53.474;9.894;2023-07-31T15:07:50;19.30;86.20
12819;DHT22;6474;53.474;9.894;2023-07-31T15:10:19;19.30;86.10
12819;DHT22;6474;53.474;9.894;2023-07-31T15:12:46;19.20;85.90
12819;DHT22;6474;53.474;9.894;2023-07-31T15:15:15;19.20;85.90
12819;DHT22;6474;53.474;9.894;2023-07-31T15:17:43;19.20;85.90
12819;DHT22;6474;53.474;9.894;2023-07-31T15:20:11;19.20;85.90
12819;DHT22;6474;53.474;9.894;2023-07-31T15:22:39;19.20;86.10
12819;DHT22;6474;53.474;9.894;2023-07-31T15:25:09;19.10;86.00
12819;DHT22;6474;53.474;9.894;2023-07-31T15:27:37;19.10;86.00
12819;DHT22;6474;53.474;9.894;2023-07-31T15:30:06;19.10;85.90
12819;DHT22;6474;53.474;9.894;2023-07-31T15:32:37;19.00;85.80
12819;DHT22;6474;53.474;9.894;2023-07-31T15:35:05;19.00;85.70
12819;DHT22;6474;53.474;9.894;2023-07-31T15:37:33;18.90;85.70
12819;DHT22;6474;53.474;9.894;2023-07-31T15:40:01;18.80;85.70
12819;DHT22;6474;53.474;9.894;2023-07-31T15:42:30;18.80;85.70
12819;DHT22;6474;53.474;9.894;2023-07-31T15:45:04;18.70;85.80
12819;DHT22;6474;53.474;9.894;2023-07-31T15:47:32;18.70;85.90
12819;DHT22;6474;53.474;9.894;2023-07-31T15:50:00;18.60;85.90
12819;DHT22;6474;53.474;9.894;2023-07-31T15:52:28;18.60;86.70
12819;DHT22;6474;53.474;9.894;2023-07-31T15:54:57;18.50;85.90
12819;DHT22;6474;53.474;9.894;2023-07-31T15:57:26;18.50;86.00
12819;DHT22;6474;53.474;9.894;2023-07-31T15:59:58;18.40;85.90
12819;DHT22;6474;53.474;9.894;2023-07-31T16:02:26;18.40;86.00
12819;DHT22;6474;53.474;9.894;2023-07-31T16:04:54;18.40;86.10
12819;DHT22;6474;53.474;9.894;2023-07-31T16:07:21;18.40;86.30